createdAt,value
2022-12-22T00:02:14.350Z,72.00
2022-12-22T00:05:01.396Z,73.60
2022-12-22T00:07:46.849Z,73.20
2022-12-22T00:10:31.856Z,70.00
2022-12-22T00:13:16.619Z,60.80
2022-12-22T00:16:01.525Z,62.00
2022-12-22T00:18:46.979Z,67.60
2022-12-22T00:21:32.779Z,71.67
2022-12-22T00:24:18.041Z,60.00
2022-12-22T00:27:03.500Z,58.40
2022-12-22T00:29:59.513Z,61.25
2022-12-22T00:32:47.013Z,54.20
2022-12-22T00:35:33.502Z,58.25
2022-12-22T00:38:18.413Z,51.60
2022-12-22T00:41:03.425Z,49.00
2022-12-22T00:43:48.548Z,44.00
2022-12-22T00:46:35.580Z,43.60
2022-12-22T00:49:20.935Z,42.25
2022-12-22T00:52:05.830Z,47.20
2022-12-22T00:54:50.911Z,45.00
2022-12-22T00:57:37.331Z,45.00
2022-12-22T01:00:23.553Z,44.60
2022-12-22T01:03:08.711Z,49.75
2022-12-22T01:05:53.909Z,51.00
2022-12-22T01:08:39.253Z,49.75
2022-12-22T01:11:24.119Z,46.40
2022-12-22T01:14:09.071Z,48.00
2022-12-22T01:16:54.104Z,51.00
2022-12-22T01:19:39.028Z,46.50
2022-12-22T01:22:27.364Z,46.25
2022-12-22T01:25:12.423Z,42.75
2022-12-22T01:27:57.511Z,46.75
2022-12-22T01:30:42.641Z,48.40
2022-12-22T01:33:31.096Z,48.20
2022-12-22T01:36:16.098Z,49.50
2022-12-22T01:39:01.125Z,52.00
2022-12-22T01:41:46.112Z,48.20
2022-12-22T01:44:35.103Z,49.00
2022-12-22T01:47:39.253Z,52.25
2022-12-22T01:50:24.793Z,53.00
2022-12-22T01:53:13.506Z,48.20
2022-12-22T01:56:01.443Z,51.40
2022-12-22T01:58:49.161Z,52.80
2022-12-22T02:01:34.155Z,50.00
2022-12-22T02:04:19.468Z,49.50
2022-12-22T02:07:05.401Z,49.00
2022-12-22T02:09:57.303Z,50.75
2022-12-22T02:12:45.221Z,50.20
2022-12-22T02:15:33.262Z,48.00
2022-12-22T02:18:26.287Z,53.40
2022-12-22T02:21:12.577Z,46.00
2022-12-22T02:24:07.303Z,48.40
2022-12-22T02:26:54.699Z,50.75
2022-12-22T02:29:43.706Z,53.00
2022-12-22T02:32:29.500Z,48.80
2022-12-22T02:35:15.007Z,49.80
2022-12-22T02:38:05.499Z,51.50
2022-12-22T02:41:08.104Z,48.40
2022-12-22T02:44:13.371Z,52.60
2022-12-22T02:47:17.527Z,51.40
2022-12-22T02:50:12.129Z,49.00
2022-12-22T02:52:58.342Z,51.00
2022-12-22T02:55:43.392Z,53.33
2022-12-22T02:58:30.185Z,51.50
2022-12-22T03:01:15.385Z,62.60
2022-12-22T03:04:00.390Z,63.40
2022-12-22T03:06:45.599Z,56.60
2022-12-22T03:09:30.683Z,58.75
2022-12-22T03:12:15.638Z,57.75
2022-12-22T03:15:00.434Z,52.75
2022-12-22T03:17:45.326Z,50.20
2022-12-22T03:20:30.515Z,49.00
2022-12-22T03:23:15.444Z,52.00
2022-12-22T03:25:54.255Z,47.00
2022-12-22T03:28:22.057Z,54.40
2022-12-22T03:30:55.879Z,52.40
2022-12-22T03:33:22.457Z,53.20
2022-12-22T03:35:48.919Z,52.00
2022-12-22T03:38:15.430Z,54.50
2022-12-22T03:40:44.403Z,50.25
2022-12-22T03:43:30.864Z,55.75
2022-12-22T03:46:29.603Z,50.75
2022-12-22T03:49:12.770Z,48.80
2022-12-22T03:51:43.239Z,48.50
2022-12-22T03:54:10.222Z,49.60
2022-12-22T03:56:37.247Z,51.40
2022-12-22T03:59:03.939Z,49.00
2022-12-22T04:01:30.627Z,52.75
2022-12-22T04:03:57.199Z,51.75
2022-12-22T04:06:23.629Z,46.25
2022-12-22T04:08:50.111Z,49.00
2022-12-22T04:11:36.177Z,48.00
2022-12-22T04:14:03.360Z,50.00
2022-12-22T04:16:30.329Z,52.00
2022-12-22T04:18:57.041Z,44.80
2022-12-22T04:21:23.727Z,45.60
2022-12-22T04:23:53.180Z,44.75
2022-12-22T04:26:20.957Z,45.50
2022-12-22T04:28:47.615Z,41.00
2022-12-22T04:31:14.119Z,47.00
2022-12-22T04:33:40.643Z,45.50
2022-12-22T04:36:07.382Z,43.00
2022-12-22T04:38:34.295Z,39.50
2022-12-22T04:41:01.023Z,38.75
2022-12-22T04:43:27.547Z,45.00
2022-12-22T04:45:54.971Z,47.80
2022-12-22T04:48:21.684Z,37.50
2022-12-22T04:50:55.291Z,43.75
2022-12-22T04:53:22.579Z,39.00
2022-12-22T04:55:50.404Z,44.25
2022-12-22T04:58:17.161Z,44.50
2022-12-22T05:00:43.939Z,44.25
2022-12-22T05:03:10.465Z,46.50
2022-12-22T05:05:36.946Z,45.80
2022-12-22T05:08:03.891Z,46.20
2022-12-22T05:10:30.716Z,44.75
2022-12-22T05:12:57.548Z,55.60
2022-12-22T05:15:25.101Z,77.50
2022-12-22T05:17:51.714Z,72.75
2022-12-22T05:20:18.646Z,70.75
2022-12-22T05:22:45.229Z,57.00
2022-12-22T05:25:13.006Z,72.40
2022-12-22T05:27:40.668Z,64.00
2022-12-22T05:30:07.603Z,66.50
2022-12-22T05:32:34.460Z,59.75
2022-12-22T05:35:01.753Z,35.80
2022-12-22T05:37:28.233Z,36.00
2022-12-22T05:39:54.674Z,32.50
2022-12-22T05:42:35.941Z,39.75
2022-12-22T05:45:04.145Z,47.60
2022-12-22T05:47:30.708Z,42.80
2022-12-22T05:49:57.148Z,42.00
2022-12-22T05:52:23.602Z,56.25
2022-12-22T05:54:50.063Z,55.25
2022-12-22T05:57:16.891Z,49.75
2022-12-22T05:59:43.430Z,50.00
2022-12-22T06:02:09.949Z,49.00
2022-12-22T06:04:36.481Z,38.75
2022-12-22T06:07:02.952Z,45.00
2022-12-22T06:09:29.434Z,45.20
2022-12-22T06:11:55.889Z,57.00
2022-12-22T06:14:22.369Z,43.60
2022-12-22T06:16:48.830Z,43.80
2022-12-22T06:19:15.300Z,56.00
2022-12-22T06:21:41.788Z,55.60
2022-12-22T06:24:08.361Z,65.40
2022-12-22T06:26:34.787Z,51.50
2022-12-22T06:29:01.252Z,44.25
2022-12-22T06:31:27.780Z,41.25
2022-12-22T06:33:54.304Z,43.00
2022-12-22T06:36:20.784Z,35.75
2022-12-22T06:38:47.229Z,73.00
2022-12-22T06:41:13.643Z,48.00
2022-12-22T06:43:40.067Z,46.00
2022-12-22T06:46:06.624Z,49.40
2022-12-22T06:48:33.111Z,61.75
2022-12-22T06:50:59.793Z,58.60
2022-12-22T06:53:26.629Z,62.33
2022-12-22T06:55:53.063Z,49.80
2022-12-22T06:58:19.543Z,35.00
2022-12-22T07:00:48.822Z,41.80
2022-12-22T07:03:15.527Z,36.25
2022-12-22T07:05:42.124Z,32.60
2022-12-22T07:08:09.456Z,35.00
2022-12-22T07:10:54.607Z,51.00
2022-12-22T07:13:21.090Z,39.00
2022-12-22T07:15:53.783Z,38.50
2022-12-22T07:18:25.995Z,35.40
2022-12-22T07:20:52.503Z,55.50
2022-12-22T07:23:19.046Z,50.60
2022-12-22T07:25:45.653Z,46.60
2022-12-22T07:28:16.768Z,45.00
2022-12-22T07:30:47.375Z,45.00
2022-12-22T07:33:13.871Z,50.25
2022-12-22T07:35:40.480Z,50.60
2022-12-22T07:38:06.933Z,54.00
2022-12-22T07:40:36.743Z,53.00
2022-12-22T07:43:06.992Z,43.50
2022-12-22T07:45:34.157Z,49.50
2022-12-22T07:48:01.051Z,43.40
2022-12-22T07:50:32.911Z,40.25
2022-12-22T07:53:01.074Z,40.20
2022-12-22T07:55:28.525Z,35.25
2022-12-22T07:57:55.412Z,30.25
2022-12-22T08:00:22.811Z,32.00
2022-12-22T08:02:50.134Z,32.00
2022-12-22T08:05:16.955Z,29.25
2022-12-22T08:07:43.722Z,28.75
2022-12-22T08:10:10.424Z,30.00
2022-12-22T08:12:36.902Z,30.40
2022-12-22T08:15:03.430Z,34.20
2022-12-22T08:17:29.949Z,34.00
2022-12-22T08:19:56.659Z,28.00
2022-12-22T08:22:26.641Z,32.00
2022-12-22T08:24:53.711Z,35.60
2022-12-22T08:27:32.171Z,68.75
2022-12-22T08:30:00.566Z,70.60
2022-12-22T08:32:27.244Z,77.75
2022-12-22T08:34:54.229Z,79.00
2022-12-22T08:37:22.896Z,46.40
2022-12-22T08:39:52.048Z,53.00
2022-12-22T08:42:19.543Z,83.50
2022-12-22T08:44:47.388Z,44.00
2022-12-22T08:47:17.189Z,44.80
2022-12-22T08:49:44.094Z,52.50
2022-12-22T08:52:16.011Z,47.00
2022-12-22T08:54:44.789Z,22.75
2022-12-22T08:57:11.249Z,23.00
2022-12-22T08:59:37.767Z,25.50
2022-12-22T09:02:05.827Z,35.00
2022-12-22T09:04:33.281Z,47.50
2022-12-22T09:07:00.325Z,44.40
2022-12-22T09:09:26.939Z,47.60
2022-12-22T09:11:53.452Z,47.60
2022-12-22T09:14:19.967Z,45.75
2022-12-22T09:16:46.529Z,45.00
2022-12-22T09:19:13.047Z,28.75
2022-12-22T09:21:39.471Z,28.00
2022-12-22T09:24:07.611Z,28.60
2022-12-22T09:26:34.598Z,43.00
2022-12-22T09:29:01.101Z,53.25
2022-12-22T09:31:28.161Z,36.33
2022-12-22T09:33:54.826Z,36.25
2022-12-22T09:36:26.440Z,35.00
2022-12-22T09:38:53.007Z,34.33
2022-12-22T09:41:22.642Z,27.00
2022-12-22T09:43:49.157Z,36.60
2022-12-22T09:46:18.744Z,20.60
2022-12-22T09:48:45.209Z,33.75
2022-12-22T09:51:13.112Z,20.60
2022-12-22T09:53:39.682Z,20.60
2022-12-22T09:56:06.580Z,21.50
2022-12-22T09:58:34.695Z,18.40
2022-12-22T10:01:07.330Z,17.80
2022-12-22T10:03:33.834Z,34.50
2022-12-22T10:06:12.345Z,55.00
2022-12-22T10:08:40.797Z,38.50
2022-12-22T10:11:07.389Z,34.00
2022-12-22T10:13:33.878Z,73.60
2022-12-22T10:16:02.916Z,70.25
2022-12-22T10:18:29.696Z,47.00
2022-12-22T10:21:03.766Z,39.00
2022-12-22T10:23:31.948Z,32.00
2022-12-22T10:28:46.865Z,34.80
2022-12-22T10:31:21.119Z,43.20
2022-12-22T10:33:48.846Z,37.00
2022-12-22T10:36:19.459Z,32.40
2022-12-22T10:39:06.027Z,31.75
2022-12-22T10:41:35.673Z,34.00
2022-12-22T10:44:07.077Z,39.25
2022-12-22T10:46:35.637Z,35.75
2022-12-22T10:49:10.224Z,39.67
2022-12-22T10:51:36.758Z,45.50
2022-12-22T10:54:03.313Z,34.40
2022-12-22T10:56:30.706Z,37.50
2022-12-22T10:58:57.174Z,37.60
2022-12-22T11:01:31.127Z,45.75
2022-12-22T11:03:58.807Z,32.50
2022-12-22T11:06:25.351Z,36.50
2022-12-22T11:08:52.199Z,34.00
2022-12-22T11:11:36.421Z,30.00
2022-12-22T11:14:21.584Z,29.20
2022-12-22T11:16:59.273Z,32.50
2022-12-22T11:19:44.869Z,31.00
2022-12-22T11:22:31.396Z,35.50
2022-12-22T11:24:58.327Z,22.60
2022-12-22T11:27:27.996Z,22.80
2022-12-22T11:30:01.698Z,13.00
2022-12-22T11:32:46.443Z,17.50
2022-12-22T11:35:15.941Z,12.20
2022-12-22T11:37:45.199Z,17.75
2022-12-22T11:40:17.803Z,14.60
2022-12-22T11:42:53.166Z,14.25
2022-12-22T11:45:43.135Z,11.67
2022-12-22T11:48:22.499Z,9.50
2022-12-22T11:51:01.518Z,10.00
2022-12-22T11:53:44.694Z,11.00
2022-12-22T11:56:20.038Z,10.50
2022-12-22T11:59:06.825Z,22.40
2022-12-22T12:01:33.262Z,12.00
2022-12-22T12:04:18.825Z,16.60
2022-12-22T12:07:09.286Z,20.60
2022-12-22T12:09:38.771Z,11.60
2022-12-22T12:12:22.194Z,9.00
2022-12-22T12:14:48.632Z,8.80
2022-12-22T12:17:23.405Z,9.40
2022-12-22T12:19:59.861Z,12.80
2022-12-22T12:22:26.263Z,11.60
2022-12-22T12:25:02.953Z,10.40
2022-12-22T12:27:29.448Z,11.33
2022-12-22T12:30:37.467Z,12.00
2022-12-22T12:33:03.426Z,12.80
2022-12-22T12:35:32.962Z,10.00
2022-12-22T12:38:03.029Z,11.20
2022-12-22T12:40:36.627Z,9.00
2022-12-22T12:43:03.946Z,14.00
2022-12-22T12:45:33.409Z,13.20
2022-12-22T12:48:18.546Z,13.20
2022-12-22T12:50:45.240Z,12.00
2022-12-22T12:53:11.857Z,15.00
2022-12-22T12:55:38.309Z,17.20
2022-12-22T12:58:06.143Z,16.75
2022-12-22T13:00:35.560Z,12.00
2022-12-22T13:03:06.301Z,15.00
2022-12-22T13:05:51.371Z,13.00
2022-12-22T13:08:17.872Z,11.40
2022-12-22T13:10:48.627Z,12.00
2022-12-22T13:13:27.044Z,15.00
2022-12-22T13:16:02.528Z,15.40
2022-12-22T13:18:29.305Z,21.00
2022-12-22T13:21:12.269Z,17.60
2022-12-22T13:24:06.241Z,9.50
2022-12-22T13:26:33.450Z,10.50
2022-12-22T13:29:01.791Z,16.20
2022-12-22T13:31:35.905Z,12.40
2022-12-22T13:34:07.854Z,14.75
2022-12-22T13:36:34.776Z,15.25
2022-12-22T13:39:03.016Z,17.60
2022-12-22T13:41:29.924Z,16.25
2022-12-22T13:43:58.594Z,17.25
2022-12-22T13:46:26.856Z,22.20
2022-12-22T13:48:55.665Z,22.50
2022-12-22T13:51:23.955Z,14.00
2022-12-22T13:54:09.027Z,14.00
2022-12-22T13:56:39.733Z,26.00
2022-12-22T13:59:15.168Z,22.00
2022-12-22T14:01:51.201Z,17.75
2022-12-22T14:04:17.854Z,27.00
2022-12-22T14:06:44.341Z,21.75
2022-12-22T14:09:13.632Z,25.00
2022-12-22T14:11:45.537Z,28.00
2022-12-22T14:14:17.798Z,16.50
2022-12-22T14:16:45.957Z,24.40
2022-12-22T14:19:16.424Z,23.75
2022-12-22T14:21:44.132Z,23.20
2022-12-22T14:24:16.913Z,22.00
2022-12-22T14:26:43.661Z,19.50
2022-12-22T14:29:13.994Z,26.25
2022-12-22T14:31:56.763Z,25.00
2022-12-22T14:34:27.321Z,18.50
2022-12-22T14:36:54.184Z,18.00
2022-12-22T14:39:22.671Z,14.40
2022-12-22T14:41:51.895Z,8.00
2022-12-22T14:44:20.704Z,17.00
2022-12-22T14:47:06.384Z,18.75
2022-12-22T14:49:33.586Z,12.75
2022-12-22T14:52:05.789Z,14.25
2022-12-22T14:54:32.488Z,11.00
2022-12-22T14:57:15.680Z,10.00
2022-12-22T14:59:57.363Z,14.50
2022-12-22T15:02:44.191Z,11.75
2022-12-22T15:05:15.315Z,11.60
2022-12-22T15:10:43.372Z,10.60
2022-12-22T15:13:16.969Z,16.33
2022-12-22T15:15:44.222Z,14.50
2022-12-22T15:18:13.501Z,12.40
2022-12-22T15:20:40.122Z,13.80
2022-12-22T15:23:18.627Z,12.00
2022-12-22T15:25:45.748Z,9.40
2022-12-22T15:28:12.295Z,9.20
2022-12-22T15:30:39.196Z,14.50
2022-12-22T15:33:10.863Z,12.00
2022-12-22T15:35:37.328Z,11.50
2022-12-22T15:38:09.828Z,14.00
2022-12-22T15:40:36.361Z,17.80
2022-12-22T15:43:02.843Z,36.40
2022-12-22T15:45:29.845Z,25.20
2022-12-22T15:47:56.406Z,25.25
2022-12-22T15:50:33.584Z,26.25
2022-12-22T15:53:05.328Z,18.25
2022-12-22T15:55:32.073Z,27.00
2022-12-22T15:57:59.192Z,29.60
2022-12-22T16:00:26.081Z,34.25
2022-12-22T16:02:52.796Z,39.50
2022-12-22T16:05:19.379Z,36.60
2022-12-22T16:07:45.945Z,29.20
2022-12-22T16:10:23.195Z,15.00
2022-12-22T16:12:54.214Z,12.60
2022-12-22T16:15:21.180Z,18.00
2022-12-22T16:17:48.080Z,28.80
2022-12-22T16:20:14.552Z,36.00
2022-12-22T16:22:42.479Z,39.50
2022-12-22T16:25:13.847Z,40.00
2022-12-22T16:27:40.494Z,38.00
2022-12-22T16:30:07.443Z,22.00
2022-12-22T16:32:33.939Z,27.40
2022-12-22T16:35:09.624Z,27.40
2022-12-22T16:37:36.205Z,10.75
2022-12-22T16:40:02.879Z,14.20
2022-12-22T16:45:19.230Z,16.00
2022-12-22T16:47:45.788Z,20.60
2022-12-22T16:50:20.130Z,27.00
2022-12-22T16:52:47.289Z,50.60
2022-12-22T16:55:17.860Z,61.75
2022-12-22T16:57:44.756Z,62.25
2022-12-22T17:00:17.747Z,61.25
2022-12-22T17:02:45.886Z,62.00
2022-12-22T17:05:26.530Z,51.00
2022-12-22T17:07:53.993Z,36.80
2022-12-22T17:10:20.858Z,45.00
2022-12-22T17:12:50.184Z,51.40
2022-12-22T17:15:18.353Z,59.60
2022-12-22T17:17:44.996Z,49.75
2022-12-22T17:20:18.198Z,18.60
2022-12-22T17:22:56.236Z,21.20
2022-12-22T17:25:30.663Z,31.50
2022-12-22T17:27:58.780Z,47.40
2022-12-22T17:30:26.195Z,46.25
2022-12-22T17:32:53.209Z,62.75
2022-12-22T17:35:22.208Z,46.00
2022-12-22T17:37:49.734Z,40.00
2022-12-22T17:40:19.331Z,47.00
2022-12-22T17:42:45.930Z,37.50
2022-12-22T17:45:13.600Z,47.50
2022-12-22T17:47:42.848Z,35.50
2022-12-22T17:50:14.266Z,47.67
2022-12-22T17:52:41.283Z,49.60
2022-12-22T17:55:19.838Z,60.25
2022-12-22T17:57:53.382Z,62.00
2022-12-22T18:00:24.612Z,59.50
2022-12-22T18:02:51.687Z,50.25
2022-12-22T18:05:20.121Z,47.75
2022-12-22T18:07:47.387Z,45.20
2022-12-22T18:10:24.592Z,48.25
2022-12-22T18:12:52.177Z,49.00
2022-12-22T18:15:19.133Z,45.20
2022-12-22T18:17:45.557Z,41.50
2022-12-22T18:20:19.466Z,45.67
2022-12-22T18:22:46.118Z,47.25
2022-12-22T18:25:23.621Z,49.20
2022-12-22T18:27:50.160Z,47.67
2022-12-22T18:30:19.643Z,43.75
2022-12-22T18:32:46.729Z,50.40
2022-12-22T18:35:13.469Z,50.00
2022-12-22T18:37:40.526Z,41.00
2022-12-22T18:40:24.608Z,48.00
2022-12-22T18:42:54.976Z,38.00
2022-12-22T18:45:22.344Z,38.20
2022-12-22T18:47:49.192Z,39.60
2022-12-22T18:50:17.174Z,32.50
2022-12-22T18:52:44.256Z,33.00
2022-12-22T18:55:17.415Z,33.50
2022-12-22T18:57:47.288Z,35.00
2022-12-22T19:00:16.764Z,48.00
2022-12-22T19:02:43.585Z,49.60
2022-12-22T19:05:20.686Z,93.50
2022-12-22T19:07:47.639Z,78.25
2022-12-22T19:10:18.031Z,88.20
2022-12-22T19:12:47.443Z,107.50
2022-12-22T19:15:22.622Z,111.75
2022-12-22T19:17:50.479Z,103.75
2022-12-22T19:20:17.864Z,101.50
2022-12-22T19:22:44.682Z,115.00
2022-12-22T19:25:15.362Z,111.50
2022-12-22T19:27:41.949Z,78.50
2022-12-22T19:30:14.661Z,61.75
2022-12-22T19:32:45.969Z,63.00
2022-12-22T19:35:13.901Z,64.25
2022-12-22T19:37:40.375Z,65.75
2022-12-22T19:40:07.400Z,61.50
2022-12-22T19:42:35.095Z,53.00
2022-12-22T19:45:08.437Z,57.00
2022-12-22T19:47:37.387Z,63.50
2022-12-22T19:50:03.959Z,61.25
2022-12-22T19:52:30.450Z,60.25
2022-12-22T19:54:56.864Z,55.00
2022-12-22T19:57:23.422Z,59.40
2022-12-22T19:59:52.429Z,54.00
2022-12-22T20:02:19.100Z,61.40
2022-12-22T20:04:45.680Z,66.00
2022-12-22T20:07:22.432Z,68.60
2022-12-22T20:09:49.223Z,69.33
2022-12-22T20:12:28.015Z,108.40
2022-12-22T20:14:54.608Z,78.00
2022-12-22T20:17:21.194Z,76.50
2022-12-22T20:19:48.071Z,75.00
2022-12-22T20:22:18.233Z,70.00
2022-12-22T20:24:45.294Z,73.20
2022-12-22T20:27:26.311Z,70.00
2022-12-22T20:29:52.817Z,66.40
2022-12-22T20:32:27.143Z,65.40
2022-12-22T20:34:54.285Z,70.67
2022-12-22T20:37:20.879Z,72.00
2022-12-22T20:39:47.440Z,77.60
2022-12-22T20:42:21.031Z,78.00
2022-12-22T20:45:03.469Z,80.25
2022-12-22T20:47:31.797Z,75.25
2022-12-22T20:49:58.314Z,83.67
2022-12-22T20:52:24.750Z,79.00
2022-12-22T20:54:51.367Z,80.80
2022-12-22T20:57:18.873Z,78.75
2022-12-22T20:59:51.951Z,79.00
2022-12-22T21:02:23.531Z,73.40
2022-12-22T21:04:50.288Z,74.50
2022-12-22T21:07:16.803Z,77.00
2022-12-22T21:09:43.252Z,83.40
2022-12-22T21:12:09.721Z,88.25
2022-12-22T21:14:36.288Z,90.00
2022-12-22T21:17:02.863Z,76.80
2022-12-22T21:19:29.947Z,70.50
2022-12-22T21:21:56.452Z,67.60
2022-12-22T21:24:22.930Z,70.60
2022-12-22T21:26:52.176Z,66.50
2022-12-22T21:29:20.133Z,56.60
2022-12-22T21:31:46.608Z,31.60
2022-12-22T21:34:13.128Z,33.00
2022-12-22T21:36:41.995Z,13.00
2022-12-22T21:39:28.948Z,15.00
2022-12-22T21:42:01.551Z,18.50
2022-12-22T21:44:29.289Z,15.40
2022-12-22T21:46:56.355Z,15.00
2022-12-22T21:49:24.361Z,17.60
2022-12-22T21:51:51.733Z,32.40
2022-12-22T21:54:19.020Z,32.25
2022-12-22T21:56:45.738Z,36.50
2022-12-22T21:59:12.188Z,38.40
2022-12-22T22:01:40.086Z,39.60
2022-12-22T22:04:07.180Z,42.20
2022-12-22T22:06:33.707Z,41.60
2022-12-22T22:09:00.262Z,36.75
2022-12-22T22:11:26.978Z,36.00
2022-12-22T22:13:53.519Z,39.60
2022-12-22T22:16:20.022Z,42.75
2022-12-22T22:18:47.190Z,43.00
2022-12-22T22:21:15.268Z,40.00
2022-12-22T22:23:42.196Z,38.25
2022-12-22T22:26:08.688Z,34.00
2022-12-22T22:28:35.519Z,34.60
2022-12-22T22:31:02.550Z,38.00
2022-12-22T22:33:29.116Z,28.75
2022-12-22T22:35:58.011Z,25.20
2022-12-22T22:38:27.126Z,33.25
2022-12-22T22:40:58.115Z,22.25
2022-12-22T22:43:24.578Z,20.40
2022-12-22T22:45:51.315Z,20.60
2022-12-22T22:48:19.431Z,28.50
2022-12-22T22:50:45.896Z,17.00
2022-12-22T22:53:12.576Z,14.40
2022-12-22T22:55:39.101Z,8.50
2022-12-22T22:58:05.576Z,6.60
2022-12-22T23:00:32.072Z,6.75
2022-12-22T23:03:00.356Z,7.00
2022-12-22T23:05:27.137Z,5.60
2022-12-22T23:07:53.670Z,4.00
2022-12-22T23:10:20.187Z,5.80
2022-12-22T23:12:46.683Z,6.00
2022-12-22T23:15:13.205Z,14.75
2022-12-22T23:17:39.676Z,1.60
2022-12-22T23:20:06.534Z,4.00
2022-12-22T23:22:33.000Z,4.40
2022-12-22T23:24:59.464Z,4.00
2022-12-22T23:27:25.953Z,3.00
2022-12-22T23:29:52.519Z,7.00
2022-12-22T23:32:19.016Z,3.00
2022-12-22T23:34:45.522Z,4.00
2022-12-22T23:37:18.749Z,3.80
2022-12-22T23:39:45.918Z,3.00
2022-12-22T23:42:12.338Z,3.50
2022-12-22T23:44:38.776Z,3.00
2022-12-22T23:47:05.347Z,5.00
2022-12-22T23:49:31.828Z,2.75
2022-12-22T23:51:58.251Z,3.00
2022-12-22T23:54:24.805Z,3.00
2022-12-22T23:56:51.296Z,6.00
2022-12-22T23:59:17.742Z,3.80
